createdAt,value
2022-11-19T00:00:33.293Z,13.80
2022-11-19T00:03:39.092Z,13.67
2022-11-19T00:06:42.214Z,15.23
2022-11-19T00:09:45.334Z,13.47
2022-11-19T00:12:57.046Z,15.20
2022-11-19T00:16:04.801Z,14.43
2022-11-19T00:19:10.846Z,12.40
2022-11-19T00:22:13.960Z,14.43
2022-11-19T00:25:17.234Z,13.47
2022-11-19T00:28:20.366Z,14.57
2022-11-19T00:31:23.930Z,14.23
2022-11-19T00:34:28.418Z,12.93
2022-11-19T00:37:31.518Z,13.33
2022-11-19T00:40:34.640Z,13.23
2022-11-19T00:43:50.443Z,12.27
2022-11-19T00:46:53.619Z,12.73
2022-11-19T00:49:58.113Z,12.00
2022-11-19T00:53:01.584Z,12.23
2022-11-19T00:56:06.543Z,14.27
2022-11-19T00:59:09.695Z,16.60
2022-11-19T01:02:12.829Z,13.90
2022-11-19T01:05:17.527Z,12.57
2022-11-19T01:08:20.804Z,14.00
2022-11-19T01:11:26.357Z,11.20
2022-11-19T01:14:29.511Z,13.13
2022-11-19T01:17:32.650Z,14.50
2022-11-19T01:20:37.152Z,19.60
2022-11-19T01:23:43.277Z,12.87
2022-11-19T01:26:46.628Z,10.43
2022-11-19T01:29:49.685Z,12.97
2022-11-19T01:32:52.799Z,12.80
2022-11-19T01:35:58.936Z,12.20
2022-11-19T01:39:02.031Z,12.33
2022-11-19T01:42:05.330Z,12.90
2022-11-19T01:45:09.805Z,15.07
2022-11-19T01:48:31.012Z,21.50
2022-11-19T01:51:38.457Z,23.80
2022-11-19T01:54:47.283Z,14.90
2022-11-19T01:57:55.612Z,16.47
2022-11-19T02:00:58.908Z,17.43
2022-11-19T02:04:03.554Z,20.97
2022-11-19T02:07:10.717Z,17.10
2022-11-19T02:10:14.495Z,19.80
2022-11-19T02:13:25.750Z,19.57
2022-11-19T02:16:40.383Z,14.70
2022-11-19T02:20:07.461Z,12.63
2022-11-19T02:23:30.879Z,17.53
2022-11-19T02:26:53.214Z,15.30
2022-11-19T02:30:10.771Z,17.20
2022-11-19T02:33:23.192Z,14.03
2022-11-19T02:36:29.846Z,12.80
2022-11-19T02:39:40.052Z,13.53
2022-11-19T02:42:51.533Z,13.73
2022-11-19T02:45:59.637Z,13.70
2022-11-19T02:49:03.243Z,14.10
2022-11-19T02:52:06.743Z,14.30
2022-11-19T02:55:13.295Z,13.97
2022-11-19T02:58:34.562Z,13.07
2022-11-19T03:02:04.144Z,12.80
2022-11-19T03:05:12.033Z,14.20
2022-11-19T03:08:15.268Z,13.80
2022-11-19T03:11:22.874Z,13.10
2022-11-19T03:14:48.668Z,12.67
2022-11-19T03:18:03.633Z,12.70
2022-11-19T03:21:13.285Z,11.97
2022-11-19T03:24:22.656Z,12.87
2022-11-19T03:27:28.623Z,10.63
2022-11-19T03:30:32.461Z,12.40
2022-11-19T03:33:41.187Z,12.23
2022-11-19T03:36:46.407Z,13.10
2022-11-19T03:39:51.989Z,11.13
2022-11-19T03:42:57.177Z,11.80
2022-11-19T03:46:03.206Z,11.87
2022-11-19T03:49:09.810Z,11.47
2022-11-19T03:52:16.281Z,11.57
2022-11-19T03:55:19.575Z,11.40
2022-11-19T03:58:25.855Z,11.30
2022-11-19T04:01:28.987Z,12.13
2022-11-19T04:04:39.331Z,10.57
2022-11-19T04:07:42.473Z,10.83
2022-11-19T04:10:45.593Z,11.40
2022-11-19T04:13:48.731Z,12.30
2022-11-19T04:16:51.817Z,12.23
2022-11-19T04:19:56.266Z,11.87
2022-11-19T04:22:59.389Z,12.03
2022-11-19T04:26:02.476Z,12.73
2022-11-19T04:29:05.912Z,11.13
2022-11-19T04:32:09.024Z,11.87
2022-11-19T04:35:14.166Z,10.67
2022-11-19T04:38:17.311Z,11.47
2022-11-19T04:41:20.407Z,11.13
2022-11-19T04:44:23.537Z,11.37
2022-11-19T04:47:26.636Z,10.70
2022-11-19T04:50:31.162Z,10.67
2022-11-19T04:53:34.235Z,10.80
2022-11-19T04:56:37.814Z,11.60
2022-11-19T04:59:40.945Z,11.20
2022-11-19T05:02:44.173Z,11.60
2022-11-19T05:05:48.657Z,12.47
2022-11-19T05:08:51.768Z,11.13
2022-11-19T05:11:54.840Z,11.93
2022-11-19T05:14:58.002Z,12.40
2022-11-19T05:18:01.121Z,11.83
2022-11-19T05:21:05.664Z,11.97
2022-11-19T05:24:09.410Z,11.23
2022-11-19T05:27:12.507Z,11.90
2022-11-19T05:30:15.975Z,10.77
2022-11-19T05:33:19.068Z,11.53
2022-11-19T05:36:23.554Z,11.30
2022-11-19T05:39:26.753Z,12.63
2022-11-19T05:42:30.067Z,12.00
2022-11-19T05:45:33.355Z,13.33
2022-11-19T05:48:36.455Z,11.57
2022-11-19T05:51:40.914Z,12.50
2022-11-19T05:54:43.982Z,12.27
2022-11-19T05:57:47.059Z,11.17
2022-11-19T06:00:54.527Z,11.00
2022-11-19T06:03:58.007Z,11.47
2022-11-19T06:07:02.555Z,11.93
2022-11-19T06:10:06.216Z,12.73
2022-11-19T06:13:09.338Z,12.23
2022-11-19T06:16:12.436Z,12.73
2022-11-19T06:19:15.537Z,12.70
2022-11-19T06:22:20.011Z,12.07
2022-11-19T06:25:23.119Z,11.20
2022-11-19T06:28:26.187Z,13.83
2022-11-19T06:31:29.312Z,13.80
2022-11-19T06:34:32.430Z,11.70
2022-11-19T06:37:37.081Z,11.80
2022-11-19T06:40:40.165Z,12.13
2022-11-19T06:43:43.768Z,12.43
2022-11-19T06:46:46.861Z,11.80
2022-11-19T06:49:49.940Z,11.60
2022-11-19T06:52:54.462Z,12.90
2022-11-19T06:55:58.305Z,11.30
2022-11-19T06:59:01.401Z,11.87
2022-11-19T07:02:04.533Z,13.07
2022-11-19T07:05:08.623Z,10.43
2022-11-19T07:08:13.172Z,12.43
2022-11-19T07:11:28.065Z,11.70
2022-11-19T07:14:31.113Z,12.60
2022-11-19T07:17:34.495Z,12.40
2022-11-19T07:20:37.716Z,12.83
2022-11-19T07:23:42.174Z,12.80
2022-11-19T07:26:45.431Z,14.10
2022-11-19T07:29:48.551Z,13.73
2022-11-19T07:32:54.256Z,13.30
2022-11-19T07:35:57.360Z,16.27
2022-11-19T07:39:01.834Z,15.23
2022-11-19T07:42:22.441Z,14.40
2022-11-19T07:45:25.535Z,14.77
2022-11-19T07:48:28.616Z,15.23
2022-11-19T07:51:31.739Z,14.20
2022-11-19T07:54:36.291Z,15.27
2022-11-19T07:57:39.535Z,15.60
2022-11-19T08:00:43.162Z,16.67
2022-11-19T08:03:49.631Z,17.30
2022-11-19T08:06:56.778Z,17.70
2022-11-19T08:10:01.292Z,20.03
2022-11-19T08:13:04.555Z,18.63
2022-11-19T08:16:09.553Z,25.70
2022-11-19T08:19:14.286Z,18.37
2022-11-19T08:22:17.423Z,18.60
2022-11-19T08:25:21.891Z,18.80
2022-11-19T08:28:25.004Z,18.80
2022-11-19T08:31:28.290Z,19.77
2022-11-19T08:34:32.246Z,19.80
2022-11-19T08:37:35.386Z,17.50
2022-11-19T08:40:39.862Z,21.30
2022-11-19T08:43:42.347Z,20.37
2022-11-19T08:46:45.934Z,21.57
2022-11-19T08:49:49.066Z,20.77
2022-11-19T08:52:56.756Z,19.57
2022-11-19T08:56:01.399Z,21.73
2022-11-19T08:59:05.297Z,22.17
2022-11-19T09:02:10.682Z,23.13
2022-11-19T09:05:14.851Z,22.87
2022-11-19T09:08:18.054Z,22.07
2022-11-19T09:11:23.164Z,20.20
2022-11-19T09:14:26.315Z,22.13
2022-11-19T09:17:29.428Z,20.87
2022-11-19T09:20:32.553Z,22.10
2022-11-19T09:23:36.166Z,21.17
2022-11-19T09:26:40.768Z,22.87
2022-11-19T09:29:43.905Z,22.80
2022-11-19T09:32:47.123Z,22.37
2022-11-19T09:35:50.243Z,21.27
2022-11-19T09:38:58.105Z,20.57
2022-11-19T09:42:14.826Z,19.07
2022-11-19T09:45:22.358Z,24.20
2022-11-19T09:48:33.832Z,20.30
2022-11-19T09:51:38.674Z,18.90
2022-11-19T09:54:47.774Z,19.33
2022-11-19T09:57:56.375Z,19.57
2022-11-19T10:00:59.719Z,17.77
2022-11-19T10:04:02.896Z,18.50
2022-11-19T10:07:12.738Z,16.80
2022-11-19T10:10:34.230Z,16.97
2022-11-19T10:13:52.402Z,33.20
2022-11-19T10:17:01.332Z,18.57
2022-11-19T10:20:19.638Z,21.57
2022-11-19T10:23:31.766Z,17.60
2022-11-19T10:26:36.883Z,21.93
2022-11-19T10:29:41.448Z,23.30
2022-11-19T10:32:54.449Z,12.87
2022-11-19T10:36:02.483Z,15.57
2022-11-19T10:39:16.820Z,15.00
2022-11-19T10:42:23.603Z,13.00
2022-11-19T10:45:30.110Z,11.77
2022-11-19T10:48:40.690Z,13.03
2022-11-19T10:51:44.116Z,12.13
2022-11-19T10:54:49.339Z,11.67
2022-11-19T10:58:01.192Z,12.43
2022-11-19T11:01:15.403Z,11.10
2022-11-19T11:04:21.650Z,11.23
2022-11-19T11:07:49.746Z,13.33
2022-11-19T11:10:54.269Z,11.90
2022-11-19T11:14:29.849Z,11.60
2022-11-19T11:17:36.541Z,11.90
2022-11-19T11:20:41.055Z,13.33
2022-11-19T11:23:53.148Z,11.40
2022-11-19T11:27:20.406Z,10.30
2022-11-19T11:30:23.670Z,10.50
2022-11-19T11:33:31.403Z,10.40
2022-11-19T11:36:36.730Z,10.13
2022-11-19T11:39:43.973Z,11.60
2022-11-19T11:42:47.771Z,12.67
2022-11-19T11:45:58.198Z,11.53
2022-11-19T11:49:09.725Z,13.07
2022-11-19T11:52:19.526Z,12.40
2022-11-19T11:55:33.584Z,10.70
2022-11-19T11:58:37.348Z,9.83
2022-11-19T12:01:42.357Z,8.80
2022-11-19T12:04:46.864Z,11.73
2022-11-19T12:08:03.674Z,10.53
2022-11-19T12:11:12.109Z,13.50
2022-11-19T12:14:18.148Z,11.57
2022-11-19T12:17:37.350Z,10.57
2022-11-19T12:20:48.831Z,9.83
2022-11-19T12:24:07.866Z,8.80
2022-11-19T12:27:20.955Z,9.97
2022-11-19T12:30:25.712Z,8.33
2022-11-19T12:33:45.986Z,9.50
2022-11-19T12:36:58.679Z,8.90
2022-11-19T12:40:12.137Z,13.37
2022-11-19T12:43:36.972Z,14.83
2022-11-19T12:46:50.424Z,13.73
2022-11-19T12:50:19.872Z,11.17
2022-11-19T12:53:50.379Z,10.80
2022-11-19T12:57:15.870Z,10.40
2022-11-19T13:00:21.480Z,9.30
2022-11-19T13:03:36.633Z,11.10
2022-11-19T13:06:46.177Z,9.47
2022-11-19T13:09:53.532Z,9.43
2022-11-19T13:12:59.408Z,9.47
2022-11-19T13:16:08.663Z,10.23
2022-11-19T13:19:22.616Z,9.37
2022-11-19T13:22:33.130Z,9.53
2022-11-19T13:25:41.584Z,10.60
2022-11-19T13:28:50.372Z,10.53
2022-11-19T13:31:59.622Z,8.60
2022-11-19T13:35:18.276Z,11.10
2022-11-19T13:38:29.333Z,9.87
2022-11-19T13:41:58.336Z,10.77
2022-11-19T13:45:00.704Z,11.07
2022-11-19T13:48:09.809Z,10.20
2022-11-19T13:51:30.255Z,11.57
2022-11-19T13:54:36.677Z,12.80
2022-11-19T13:57:46.042Z,10.87
2022-11-19T14:01:24.342Z,11.10
2022-11-19T14:04:51.016Z,10.70
2022-11-19T14:08:11.847Z,9.90
2022-11-19T14:11:28.596Z,10.60
2022-11-19T14:15:03.962Z,11.43
2022-11-19T14:18:36.321Z,11.10
2022-11-19T14:22:06.045Z,12.57
2022-11-19T14:25:27.680Z,12.30
2022-11-19T14:28:48.268Z,13.03
2022-11-19T14:32:20.037Z,13.03
2022-11-19T14:35:36.625Z,11.77
2022-11-19T14:38:44.050Z,12.07
2022-11-19T14:41:47.268Z,11.43
2022-11-19T14:45:21.715Z,13.57
2022-11-19T14:48:24.955Z,13.73
2022-11-19T14:51:32.443Z,13.50
2022-11-19T14:54:44.199Z,13.30
2022-11-19T14:57:57.500Z,11.40
2022-11-19T15:01:15.520Z,12.40
2022-11-19T15:04:27.134Z,12.77
2022-11-19T15:07:43.382Z,13.27
2022-11-19T15:11:05.357Z,12.97
2022-11-19T15:14:59.926Z,13.43
2022-11-19T15:18:16.303Z,13.63
2022-11-19T15:21:44.513Z,13.30
2022-11-19T15:25:15.109Z,14.10
2022-11-19T15:28:36.563Z,11.40
2022-11-19T15:32:01.390Z,14.27
2022-11-19T15:35:39.609Z,12.87
2022-11-19T15:38:49.047Z,14.30
2022-11-19T15:42:02.179Z,14.40
2022-11-19T15:45:13.844Z,18.70
2022-11-19T15:48:21.641Z,14.77
2022-11-19T15:51:26.370Z,14.73
2022-11-19T15:54:31.061Z,17.93
2022-11-19T15:57:35.968Z,15.43
2022-11-19T16:00:46.760Z,15.03
2022-11-19T16:03:53.427Z,15.83
2022-11-19T16:06:58.064Z,14.43
2022-11-19T16:10:01.853Z,15.60
2022-11-19T16:13:38.629Z,16.40
2022-11-19T16:16:59.278Z,14.17
2022-11-19T16:20:20.505Z,13.80
2022-11-19T16:23:26.845Z,11.70
2022-11-19T16:26:30.412Z,12.10
2022-11-19T16:29:40.224Z,12.30
2022-11-19T16:32:43.467Z,11.60
2022-11-19T16:35:52.553Z,10.77
2022-11-19T16:38:58.621Z,13.00
2022-11-19T16:42:18.062Z,11.20
2022-11-19T16:45:25.203Z,11.30
2022-11-19T16:48:55.515Z,11.80
2022-11-19T16:52:00.208Z,12.23
2022-11-19T16:55:06.073Z,10.53
2022-11-19T16:58:20.565Z,11.60
2022-11-19T17:01:28.149Z,12.00
2022-11-19T17:04:33.286Z,16.67
2022-11-19T17:07:38.253Z,14.00
2022-11-19T17:10:43.790Z,12.17
2022-11-19T17:13:47.743Z,12.10
2022-11-19T17:16:53.351Z,11.17
2022-11-19T17:19:59.125Z,11.77
2022-11-19T17:23:10.004Z,12.13
2022-11-19T17:26:20.067Z,11.00
2022-11-19T17:29:25.335Z,11.10
2022-11-19T17:32:35.184Z,10.03
2022-11-19T17:35:40.811Z,10.17
2022-11-19T17:38:44.480Z,10.50
2022-11-19T17:42:07.218Z,9.63
2022-11-19T17:45:11.318Z,9.87
2022-11-19T17:48:23.263Z,11.20
2022-11-19T17:51:28.195Z,11.30
2022-11-19T17:54:32.482Z,12.53
2022-11-19T17:57:42.325Z,11.03
2022-11-19T18:00:46.303Z,11.93
2022-11-19T18:03:50.202Z,8.73
2022-11-19T18:06:55.729Z,9.17
2022-11-19T18:09:59.390Z,9.30
2022-11-19T18:13:04.847Z,10.07
2022-11-19T18:16:16.131Z,8.30
2022-11-19T18:19:26.473Z,9.03
2022-11-19T18:22:30.267Z,8.17
2022-11-19T18:25:34.256Z,8.23
2022-11-19T18:28:43.687Z,7.37
2022-11-19T18:31:52.465Z,7.43
2022-11-19T18:34:59.225Z,7.07
2022-11-19T18:38:05.939Z,8.07
2022-11-19T18:41:12.213Z,7.23
2022-11-19T18:44:36.087Z,7.60
2022-11-19T18:47:40.683Z,8.30
2022-11-19T18:50:44.440Z,7.80
2022-11-19T18:53:48.444Z,9.10
2022-11-19T18:56:52.180Z,9.80
2022-11-19T18:59:57.620Z,8.43
2022-11-19T19:03:03.192Z,9.43
2022-11-19T19:06:09.412Z,8.70
2022-11-19T19:09:19.644Z,9.67
2022-11-19T19:12:25.365Z,9.27
2022-11-19T19:15:31.496Z,8.60
2022-11-19T19:18:36.958Z,9.77
2022-11-19T19:21:41.348Z,9.93
2022-11-19T19:24:45.174Z,9.30
2022-11-19T19:27:49.541Z,8.27
2022-11-19T19:31:01.080Z,9.97
2022-11-19T19:34:05.161Z,8.53
2022-11-19T19:37:10.521Z,8.23
2022-11-19T19:40:16.606Z,7.00
2022-11-19T19:43:21.191Z,8.50
2022-11-19T19:46:26.373Z,7.60
2022-11-19T19:49:32.449Z,8.50
2022-11-19T19:52:41.622Z,8.00
2022-11-19T19:55:46.343Z,8.50
2022-11-19T19:58:53.675Z,8.60
2022-11-19T20:01:59.675Z,7.47
2022-11-19T20:05:04.137Z,7.43
2022-11-19T20:08:08.574Z,6.93
2022-11-19T20:11:14.576Z,7.97
2022-11-19T20:14:18.735Z,7.13
2022-11-19T20:17:24.488Z,8.17
2022-11-19T20:20:29.164Z,8.90
2022-11-19T20:23:34.378Z,8.63
2022-11-19T20:26:39.349Z,9.27
2022-11-19T20:29:43.243Z,8.57
2022-11-19T20:32:51.069Z,9.30
2022-11-19T20:35:55.309Z,9.37
2022-11-19T20:38:59.719Z,9.20
2022-11-19T20:42:20.772Z,10.20
2022-11-19T20:45:25.104Z,11.87
2022-11-19T20:48:31.124Z,10.80
2022-11-19T20:51:36.334Z,10.70
2022-11-19T20:54:39.941Z,11.73
2022-11-19T20:57:44.239Z,15.10
2022-11-19T21:00:48.153Z,13.10
2022-11-19T21:03:53.874Z,13.57
2022-11-19T21:06:58.241Z,18.50
2022-11-19T21:10:07.680Z,15.93
2022-11-19T21:13:12.661Z,16.57
2022-11-19T21:16:19.071Z,14.90
2022-11-19T21:19:24.424Z,16.03
2022-11-19T21:22:28.273Z,17.20
2022-11-19T21:25:35.443Z,16.23
2022-11-19T21:28:39.144Z,19.07
2022-11-19T21:31:45.862Z,16.93
2022-11-19T21:34:50.745Z,17.97
2022-11-19T21:37:54.776Z,20.67
2022-11-19T21:40:58.419Z,19.90
2022-11-19T21:44:02.354Z,20.07
2022-11-19T21:47:05.601Z,20.13
2022-11-19T21:50:10.499Z,19.43
2022-11-19T21:53:14.029Z,17.80
2022-11-19T21:56:17.384Z,19.80
2022-11-19T21:59:20.846Z,22.83
2022-11-19T22:02:24.139Z,21.50
2022-11-19T22:05:29.080Z,21.30
2022-11-19T22:08:32.623Z,23.67
2022-11-19T22:11:35.782Z,18.30
2022-11-19T22:14:38.916Z,18.97
2022-11-19T22:17:42.064Z,20.23
2022-11-19T22:20:46.633Z,18.50
2022-11-19T22:23:49.919Z,21.43
2022-11-19T22:26:53.034Z,19.20
2022-11-19T22:29:56.806Z,19.30
2022-11-19T22:32:59.996Z,17.83
2022-11-19T22:36:09.868Z,20.20
2022-11-19T22:39:13.850Z,19.57
2022-11-19T22:42:16.964Z,20.00
2022-11-19T22:45:20.079Z,19.23
2022-11-19T22:48:23.177Z,17.63
2022-11-19T22:51:27.842Z,17.37
2022-11-19T22:54:30.918Z,20.60
2022-11-19T22:57:34.009Z,20.40
2022-11-19T23:00:41.922Z,21.23
2022-11-19T23:03:45.343Z,21.37
2022-11-19T23:06:49.810Z,20.27
2022-11-19T23:09:52.910Z,20.10
2022-11-19T23:13:13.217Z,18.70
2022-11-19T23:16:18.620Z,20.53
2022-11-19T23:19:21.972Z,18.33
2022-11-19T23:22:26.583Z,20.27
2022-11-19T23:25:29.690Z,19.47
2022-11-19T23:28:35.317Z,19.20
2022-11-19T23:31:39.995Z,18.57
2022-11-19T23:34:43.021Z,17.90
2022-11-19T23:37:48.114Z,18.17
2022-11-19T23:40:58.681Z,18.30
2022-11-19T23:44:02.559Z,19.70
2022-11-19T23:47:06.775Z,18.10
2022-11-19T23:50:10.511Z,19.50
2022-11-19T23:53:14.989Z,17.90
2022-11-19T23:56:19.493Z,17.60
2022-11-19T23:59:25.634Z,18.67
